sensor_id;sensor_type;location;lat;lon;timestamp;temperature;humidity
20722;DHT22;10522;52.198;9.890;2022-09-20T00:00:41;9.70;99.90
20722;DHT22;10522;52.198;9.890;2022-09-20T00:03:08;9.70;99.90
20722;DHT22;10522;52.198;9.890;2022-09-20T00:05:35;9.70;99.90
20722;DHT22;10522;52.198;9.890;2022-09-20T00:08:02;9.80;99.90
20722;DHT22;10522;52.198;9.890;2022-09-20T00:10:29;9.70;99.90
20722;DHT22;10522;52.198;9.890;2022-09-20T00:12:56;9.70;99.90
20722;DHT22;10522;52.198;9.890;2022-09-20T00:15:22;9.70;99.90
20722;DHT22;10522;52.198;9.890;2022-09-20T00:17:47;9.70;99.90
20722;DHT22;10522;52.198;9.890;2022-09-20T00:20:13;9.70;99.90
20722;DHT22;10522;52.198;9.890;2022-09-20T00:22:38;9.60;99.90
20722;DHT22;10522;52.198;9.890;2022-09-20T00:25:04;9.50;99.90
20722;DHT22;10522;52.198;9.890;2022-09-20T00:27:30;9.50;99.90
20722;DHT22;10522;52.198;9.890;2022-09-20T00:29:56;9.50;99.90
20722;DHT22;10522;52.198;9.890;2022-09-20T00:32:23;9.40;99.90
20722;DHT22;10522;52.198;9.890;2022-09-20T00:34:49;9.20;99.90
20722;DHT22;10522;52.198;9.890;2022-09-20T00:37:37;9.30;99.90
20722;DHT22;10522;52.198;9.890;2022-09-20T00:40:06;9.30;99.90
20722;DHT22;10522;52.198;9.890;2022-09-20T00:42:32;9.10;99.90
20722;DHT22;10522;52.198;9.890;2022-09-20T00:44:59;9.10;99.90
20722;DHT22;10522;52.198;9.890;2022-09-20T00:47:31;9.10;99.90
20722;DHT22;10522;52.198;9.890;2022-09-20T00:50:06;9.10;99.90
20722;DHT22;10522;52.198;9.890;2022-09-20T00:52:38;9.20;99.90
20722;DHT22;10522;52.198;9.890;2022-09-20T00:55:06;9.20;99.90
20722;DHT22;10522;52.198;9.890;2022-09-20T00:57:33;9.20;99.90
20722;DHT22;10522;52.198;9.890;2022-09-20T01:00:08;9.30;99.90
20722;DHT22;10522;52.198;9.890;2022-09-20T01:02:38;9.20;99.90
20722;DHT22;10522;52.198;9.890;2022-09-20T01:05:07;9.10;99.90
20722;DHT22;10522;52.198;9.890;2022-09-20T01:07:34;9.10;99.90
20722;DHT22;10522;52.198;9.890;2022-09-20T01:10:00;9.00;99.90
20722;DHT22;10522;52.198;9.890;2022-09-20T01:12:29;9.10;99.90
20722;DHT22;10522;52.198;9.890;2022-09-20T01:14:57;9.00;99.90
20722;DHT22;10522;52.198;9.890;2022-09-20T01:17:24;9.00;99.90
20722;DHT22;10522;52.198;9.890;2022-09-20T01:27:55;8.90;99.90
20722;DHT22;10522;52.198;9.890;2022-09-20T01:30:37;8.90;99.90
20722;DHT22;10522;52.198;9.890;2022-09-20T01:33:30;8.90;99.90
20722;DHT22;10522;52.198;9.890;2022-09-20T01:36:01;8.90;99.90
20722;DHT22;10522;52.198;9.890;2022-09-20T01:46:35;9.00;99.90
20722;DHT22;10522;52.198;9.890;2022-09-20T02:09:02;9.50;99.90
20722;DHT22;10522;52.198;9.890;2022-09-20T02:11:16;9.50;99.90
20722;DHT22;10522;52.198;9.890;2022-09-20T02:14:14;9.60;99.90
20722;DHT22;10522;52.198;9.890;2022-09-20T02:16:55;9.60;99.90
20722;DHT22;10522;52.198;9.890;2022-09-20T02:20:00;9.60;99.90
20722;DHT22;10522;52.198;9.890;2022-09-20T02:26:02;9.60;99.90
20722;DHT22;10522;52.198;9.890;2022-09-20T02:28:45;9.70;99.90
20722;DHT22;10522;52.198;9.890;2022-09-20T02:31:48;9.70;99.90
20722;DHT22;10522;52.198;9.890;2022-09-20T02:34:41;9.70;99.90
20722;DHT22;10522;52.198;9.890;2022-09-20T02:40:22;9.70;99.90
20722;DHT22;10522;52.198;9.890;2022-09-20T02:51:35;9.50;99.90
20722;DHT22;10522;52.198;9.890;2022-09-20T02:57:02;9.40;99.90
20722;DHT22;10522;52.198;9.890;2022-09-20T03:01:59;9.30;99.90
20722;DHT22;10522;52.198;9.890;2022-09-20T03:04:38;9.30;99.90
20722;DHT22;10522;52.198;9.890;2022-09-20T03:07:31;9.10;99.90
20722;DHT22;10522;52.198;9.890;2022-09-20T03:18:53;9.20;99.90
20722;DHT22;10522;52.198;9.890;2022-09-20T03:24:49;9.30;99.90
20722;DHT22;10522;52.198;9.890;2022-09-20T03:33:05;9.30;99.90
20722;DHT22;10522;52.198;9.890;2022-09-20T03:36:09;9.30;99.90
20722;DHT22;10522;52.198;9.890;2022-09-20T03:42:07;9.40;99.90
20722;DHT22;10522;52.198;9.890;2022-09-20T04:10:30;9.60;99.90
20722;DHT22;10522;52.198;9.890;2022-09-20T04:15:44;9.70;99.90
20722;DHT22;10522;52.198;9.890;2022-09-20T04:21:02;9.70;99.90
20722;DHT22;10522;52.198;9.890;2022-09-20T04:23:38;9.70;99.90
20722;DHT22;10522;52.198;9.890;2022-09-20T04:26:05;9.70;99.90
20722;DHT22;10522;52.198;9.890;2022-09-20T04:28:56;9.70;99.90
20722;DHT22;10522;52.198;9.890;2022-09-20T04:34:29;9.70;99.90
20722;DHT22;10522;52.198;9.890;2022-09-20T04:37:26;9.70;99.90
20722;DHT22;10522;52.198;9.890;2022-09-20T05:00:14;9.90;99.90
20722;DHT22;10522;52.198;9.890;2022-09-20T05:09:00;9.90;99.90
20722;DHT22;10522;52.198;9.890;2022-09-20T05:11:52;9.90;99.90
20722;DHT22;10522;52.198;9.890;2022-09-20T05:23:20;10.00;99.90
20722;DHT22;10522;52.198;9.890;2022-09-20T05:31:20;10.00;99.90
20722;DHT22;10522;52.198;9.890;2022-09-20T05:37:09;10.10;99.90
20722;DHT22;10522;52.198;9.890;2022-09-20T05:45:47;10.20;99.90
20722;DHT22;10522;52.198;9.890;2022-09-20T05:48:11;10.20;99.90
20722;DHT22;10522;52.198;9.890;2022-09-20T05:51:04;10.30;99.90
20722;DHT22;10522;52.198;9.890;2022-09-20T05:53:49;10.30;99.90
20722;DHT22;10522;52.198;9.890;2022-09-20T06:04:45;10.30;99.90
20722;DHT22;10522;52.198;9.890;2022-09-20T06:07:42;10.20;99.90
20722;DHT22;10522;52.198;9.890;2022-09-20T06:15:59;10.30;99.90
20722;DHT22;10522;52.198;9.890;2022-09-20T06:18:56;10.20;99.90
20722;DHT22;10522;52.198;9.890;2022-09-20T06:21:41;10.20;99.90
20722;DHT22;10522;52.198;9.890;2022-09-20T06:24:35;10.20;99.90
20722;DHT22;10522;52.198;9.890;2022-09-20T06:27:07;10.20;99.90
20722;DHT22;10522;52.198;9.890;2022-09-20T06:29:38;10.10;99.90
20722;DHT22;10522;52.198;9.890;2022-09-20T06:32:04;10.30;99.90
20722;DHT22;10522;52.198;9.890;2022-09-20T06:34:30;10.20;99.90
20722;DHT22;10522;52.198;9.890;2022-09-20T06:37:33;10.20;99.90
20722;DHT22;10522;52.198;9.890;2022-09-20T06:40:35;10.20;99.90
20722;DHT22;10522;52.198;9.890;2022-09-20T06:43:22;10.20;99.90
20722;DHT22;10522;52.198;9.890;2022-09-20T06:45:47;10.30;99.90
20722;DHT22;10522;52.198;9.890;2022-09-20T06:48:13;10.40;99.90
20722;DHT22;10522;52.198;9.890;2022-09-20T06:50:40;10.40;99.90
20722;DHT22;10522;52.198;9.890;2022-09-20T06:53:16;10.50;99.90
20722;DHT22;10522;52.198;9.890;2022-09-20T06:55:43;10.50;99.90
20722;DHT22;10522;52.198;9.890;2022-09-20T06:58:09;10.50;99.90
20722;DHT22;10522;52.198;9.890;2022-09-20T07:00:36;10.50;99.90
20722;DHT22;10522;52.198;9.890;2022-09-20T07:03:04;10.60;99.90
20722;DHT22;10522;52.198;9.890;2022-09-20T07:05:30;10.50;99.90
20722;DHT22;10522;52.198;9.890;2022-09-20T07:07:59;10.50;99.90
20722;DHT22;10522;52.198;9.890;2022-09-20T07:10:26;10.60;99.90
20722;DHT22;10522;52.198;9.890;2022-09-20T07:12:56;10.60;99.90
20722;DHT22;10522;52.198;9.890;2022-09-20T07:15:24;10.80;99.90
20722;DHT22;10522;52.198;9.890;2022-09-20T07:17:51;10.80;99.90
20722;DHT22;10522;52.198;9.890;2022-09-20T07:20:17;10.90;99.90
20722;DHT22;10522;52.198;9.890;2022-09-20T07:22:45;10.90;99.90
20722;DHT22;10522;52.198;9.890;2022-09-20T07:25:11;10.90;99.90
20722;DHT22;10522;52.198;9.890;2022-09-20T07:27:36;11.00;99.90
20722;DHT22;10522;52.198;9.890;2022-09-20T07:30:02;11.00;99.90
20722;DHT22;10522;52.198;9.890;2022-09-20T07:32:28;11.10;99.90
20722;DHT22;10522;52.198;9.890;2022-09-20T07:34:54;11.20;99.90
20722;DHT22;10522;52.198;9.890;2022-09-20T07:37:20;11.30;99.90
20722;DHT22;10522;52.198;9.890;2022-09-20T07:39:45;11.40;99.90
20722;DHT22;10522;52.198;9.890;2022-09-20T07:42:12;11.40;99.90
20722;DHT22;10522;52.198;9.890;2022-09-20T07:44:38;11.60;99.90
20722;DHT22;10522;52.198;9.890;2022-09-20T07:47:06;11.60;99.90
20722;DHT22;10522;52.198;9.890;2022-09-20T07:49:32;11.60;99.90
20722;DHT22;10522;52.198;9.890;2022-09-20T07:51:58;11.60;99.90
20722;DHT22;10522;52.198;9.890;2022-09-20T07:54:23;11.70;99.90
20722;DHT22;10522;52.198;9.890;2022-09-20T07:56:51;11.60;99.90
20722;DHT22;10522;52.198;9.890;2022-09-20T07:59:17;11.50;99.90
20722;DHT22;10522;52.198;9.890;2022-09-20T08:01:42;11.50;99.90
20722;DHT22;10522;52.198;9.890;2022-09-20T08:04:09;11.50;99.90
20722;DHT22;10522;52.198;9.890;2022-09-20T08:06:39;11.30;99.90
20722;DHT22;10522;52.198;9.890;2022-09-20T08:09:06;11.30;99.90
20722;DHT22;10522;52.198;9.890;2022-09-20T08:11:32;11.40;99.90
20722;DHT22;10522;52.198;9.890;2022-09-20T08:13:59;11.50;99.90
20722;DHT22;10522;52.198;9.890;2022-09-20T08:16:26;11.60;99.90
20722;DHT22;10522;52.198;9.890;2022-09-20T08:18:54;11.50;99.90
20722;DHT22;10522;52.198;9.890;2022-09-20T08:21:22;11.80;99.90
20722;DHT22;10522;52.198;9.890;2022-09-20T08:23:48;11.90;99.90
20722;DHT22;10522;52.198;9.890;2022-09-20T08:26:20;12.00;99.90
20722;DHT22;10522;52.198;9.890;2022-09-20T08:28:51;12.20;99.90
20722;DHT22;10522;52.198;9.890;2022-09-20T08:31:19;12.50;99.90
20722;DHT22;10522;52.198;9.890;2022-09-20T08:33:46;12.80;99.90
20722;DHT22;10522;52.198;9.890;2022-09-20T08:36:15;12.90;99.90
20722;DHT22;10522;52.198;9.890;2022-09-20T08:38:42;13.20;99.90
20722;DHT22;10522;52.198;9.890;2022-09-20T08:43:47;13.70;99.90
20722;DHT22;10522;52.198;9.890;2022-09-20T08:46:17;13.90;99.90
20722;DHT22;10522;52.198;9.890;2022-09-20T08:48:44;14.20;99.90
20722;DHT22;10522;52.198;9.890;2022-09-20T08:51:15;14.70;99.90
20722;DHT22;10522;52.198;9.890;2022-09-20T08:53:50;14.70;99.90
20722;DHT22;10522;52.198;9.890;2022-09-20T08:56:17;14.40;99.90
20722;DHT22;10522;52.198;9.890;2022-09-20T08:58:43;14.00;99.90
20722;DHT22;10522;52.198;9.890;2022-09-20T09:01:28;13.80;99.90
20722;DHT22;10522;52.198;9.890;2022-09-20T09:04:20;13.50;99.90
20722;DHT22;10522;52.198;9.890;2022-09-20T09:06:48;13.40;99.90
20722;DHT22;10522;52.198;9.890;2022-09-20T09:09:24;13.40;99.90
20722;DHT22;10522;52.198;9.890;2022-09-20T09:11:52;13.40;99.90
20722;DHT22;10522;52.198;9.890;2022-09-20T09:14:26;13.80;99.90
20722;DHT22;10522;52.198;9.890;2022-09-20T09:17:12;13.90;99.90
20722;DHT22;10522;52.198;9.890;2022-09-20T09:22:09;14.00;99.90
20722;DHT22;10522;52.198;9.890;2022-09-20T09:24:34;13.90;99.90
20722;DHT22;10522;52.198;9.890;2022-09-20T09:27:13;13.70;99.90
20722;DHT22;10522;52.198;9.890;2022-09-20T09:29:52;13.90;99.90
20722;DHT22;10522;52.198;9.890;2022-09-20T09:32:38;14.10;99.90
20722;DHT22;10522;52.198;9.890;2022-09-20T09:35:23;13.90;99.90
20722;DHT22;10522;52.198;9.890;2022-09-20T09:37:57;14.00;99.90
20722;DHT22;10522;52.198;9.890;2022-09-20T09:40:24;14.10;99.90
20722;DHT22;10522;52.198;9.890;2022-09-20T09:42:51;14.30;99.90
20722;DHT22;10522;52.198;9.890;2022-09-20T09:47:55;14.30;99.90
20722;DHT22;10522;52.198;9.890;2022-09-20T09:50:32;14.20;99.90
20722;DHT22;10522;52.198;9.890;2022-09-20T09:53:15;14.40;99.90
20722;DHT22;10522;52.198;9.890;2022-09-20T10:01:25;14.70;99.90
20722;DHT22;10522;52.198;9.890;2022-09-20T10:10:02;14.90;99.90
20722;DHT22;10522;52.198;9.890;2022-09-20T10:15:39;15.00;99.90
20722;DHT22;10522;52.198;9.890;2022-09-20T10:37:01;14.70;99.90
20722;DHT22;10522;52.198;9.890;2022-09-20T10:39:33;14.80;99.90
20722;DHT22;10522;52.198;9.890;2022-09-20T10:42:39;14.70;99.90
20722;DHT22;10522;52.198;9.890;2022-09-20T10:48:44;14.60;99.90
20722;DHT22;10522;52.198;9.890;2022-09-20T10:56:49;14.60;99.90
20722;DHT22;10522;52.198;9.890;2022-09-20T10:59:23;14.80;99.90
20722;DHT22;10522;52.198;9.890;2022-09-20T11:10:54;15.90;99.90
20722;DHT22;10522;52.198;9.890;2022-09-20T11:13:24;15.70;99.90
20722;DHT22;10522;52.198;9.890;2022-09-20T11:18:41;15.60;99.90
20722;DHT22;10522;52.198;9.890;2022-09-20T11:21:20;16.10;99.90
20722;DHT22;10522;52.198;9.890;2022-09-20T11:29:11;15.60;99.90
20722;DHT22;10522;52.198;9.890;2022-09-20T11:31:42;16.10;99.90
20722;DHT22;10522;52.198;9.890;2022-09-20T11:34:26;15.90;99.90
20722;DHT22;10522;52.198;9.890;2022-09-20T11:36:58;15.50;99.90
20722;DHT22;10522;52.198;9.890;2022-09-20T11:42:00;16.10;99.90
20722;DHT22;10522;52.198;9.890;2022-09-20T11:44:27;16.70;99.90
20722;DHT22;10522;52.198;9.890;2022-09-20T11:49:29;17.20;99.90
20722;DHT22;10522;52.198;9.890;2022-09-20T11:57:27;16.20;99.90
20722;DHT22;10522;52.198;9.890;2022-09-20T11:59:59;16.10;99.90
20722;DHT22;10522;52.198;9.890;2022-09-20T12:05:06;16.30;99.90
20722;DHT22;10522;52.198;9.890;2022-09-20T12:07:40;16.00;99.90
20722;DHT22;10522;52.198;9.890;2022-09-20T12:10:28;16.10;99.90
20722;DHT22;10522;52.198;9.890;2022-09-20T12:13:00;15.90;99.90
20722;DHT22;10522;52.198;9.890;2022-09-20T12:15:34;15.90;99.90
20722;DHT22;10522;52.198;9.890;2022-09-20T12:18:01;15.90;99.90
20722;DHT22;10522;52.198;9.890;2022-09-20T12:36:40;17.80;99.90
20722;DHT22;10522;52.198;9.890;2022-09-20T12:44:43;16.70;99.90
20722;DHT22;10522;52.198;9.890;2022-09-20T12:52:52;16.80;99.90
20722;DHT22;10522;52.198;9.890;2022-09-20T13:00:41;16.20;99.90
20722;DHT22;10522;52.198;9.890;2022-09-20T13:05:46;16.10;99.90
20722;DHT22;10522;52.198;9.890;2022-09-20T13:08:21;16.50;99.90
20722;DHT22;10522;52.198;9.890;2022-09-20T13:13:49;18.00;99.90
20722;DHT22;10522;52.198;9.890;2022-09-20T13:19:11;18.10;99.90
20722;DHT22;10522;52.198;9.890;2022-09-20T13:21:45;18.30;99.90
20722;DHT22;10522;52.198;9.890;2022-09-20T13:24:17;18.50;99.90
20722;DHT22;10522;52.198;9.890;2022-09-20T13:26:46;18.20;99.90
20722;DHT22;10522;52.198;9.890;2022-09-20T13:29:31;17.90;99.90
20722;DHT22;10522;52.198;9.890;2022-09-20T13:32:21;17.80;99.90
20722;DHT22;10522;52.198;9.890;2022-09-20T13:37:37;17.80;99.90
20722;DHT22;10522;52.198;9.890;2022-09-20T13:40:20;17.80;99.90
20722;DHT22;10522;52.198;9.890;2022-09-20T13:42:47;17.40;99.90
20722;DHT22;10522;52.198;9.890;2022-09-20T13:45:14;17.60;99.90
20722;DHT22;10522;52.198;9.890;2022-09-20T13:47:42;17.60;99.90
20722;DHT22;10522;52.198;9.890;2022-09-20T13:50:24;17.70;99.90
20722;DHT22;10522;52.198;9.890;2022-09-20T13:52:57;17.50;99.90
20722;DHT22;10522;52.198;9.890;2022-09-20T13:55:28;17.60;99.90
20722;DHT22;10522;52.198;9.890;2022-09-20T13:57:56;17.80;99.90
20722;DHT22;10522;52.198;9.890;2022-09-20T14:00:23;18.20;99.90
20722;DHT22;10522;52.198;9.890;2022-09-20T14:02:51;18.20;99.90
20722;DHT22;10522;52.198;9.890;2022-09-20T14:05:20;18.10;99.90
20722;DHT22;10522;52.198;9.890;2022-09-20T14:07:46;17.80;99.90
20722;DHT22;10522;52.198;9.890;2022-09-20T14:10:39;17.30;99.90
20722;DHT22;10522;52.198;9.890;2022-09-20T14:13:14;17.40;99.90
20722;DHT22;10522;52.198;9.890;2022-09-20T14:15:43;17.60;99.90
20722;DHT22;10522;52.198;9.890;2022-09-20T14:18:13;17.90;99.90
20722;DHT22;10522;52.198;9.890;2022-09-20T14:20:41;17.50;99.90
20722;DHT22;10522;52.198;9.890;2022-09-20T14:23:28;18.00;99.90
20722;DHT22;10522;52.198;9.890;2022-09-20T14:28:45;16.40;99.90
20722;DHT22;10522;52.198;9.890;2022-09-20T14:31:27;15.60;99.90
20722;DHT22;10522;52.198;9.890;2022-09-20T14:33:56;15.00;99.90
20722;DHT22;10522;52.198;9.890;2022-09-20T14:36:25;14.60;99.90
20722;DHT22;10522;52.198;9.890;2022-09-20T14:38:54;14.50;99.90
20722;DHT22;10522;52.198;9.890;2022-09-20T14:41:46;14.50;99.90
20722;DHT22;10522;52.198;9.890;2022-09-20T14:44:30;14.40;99.90
20722;DHT22;10522;52.198;9.890;2022-09-20T14:46:57;14.30;99.90
20722;DHT22;10522;52.198;9.890;2022-09-20T14:51:48;14.00;99.90
20722;DHT22;10522;52.198;9.890;2022-09-20T14:54:28;14.00;99.90
20722;DHT22;10522;52.198;9.890;2022-09-20T14:56:56;14.00;99.90
20722;DHT22;10522;52.198;9.890;2022-09-20T14:59:26;14.00;99.90
20722;DHT22;10522;52.198;9.890;2022-09-20T15:02:12;14.00;99.90
20722;DHT22;10522;52.198;9.890;2022-09-20T15:04:41;14.00;99.90
20722;DHT22;10522;52.198;9.890;2022-09-20T15:07:15;14.10;99.90
20722;DHT22;10522;52.198;9.890;2022-09-20T15:09:41;14.10;99.90
20722;DHT22;10522;52.198;9.890;2022-09-20T15:14:35;14.30;99.90
20722;DHT22;10522;52.198;9.890;2022-09-20T15:17:00;14.50;99.90
20722;DHT22;10522;52.198;9.890;2022-09-20T15:19:26;14.70;99.90
20722;DHT22;10522;52.198;9.890;2022-09-20T15:21:52;15.40;99.90
20722;DHT22;10522;52.198;9.890;2022-09-20T15:24:18;15.90;99.90
20722;DHT22;10522;52.198;9.890;2022-09-20T15:26:44;16.30;99.90
20722;DHT22;10522;52.198;9.890;2022-09-20T15:29:17;16.20;99.90
20722;DHT22;10522;52.198;9.890;2022-09-20T15:31:45;16.30;99.90
20722;DHT22;10522;52.198;9.890;2022-09-20T15:34:10;16.10;99.90
20722;DHT22;10522;52.198;9.890;2022-09-20T15:36:38;16.40;99.90
20722;DHT22;10522;52.198;9.890;2022-09-20T15:39:04;16.80;99.90
20722;DHT22;10522;52.198;9.890;2022-09-20T15:41:30;17.10;99.90
20722;DHT22;10522;52.198;9.890;2022-09-20T15:43:56;18.10;99.90
20722;DHT22;10522;52.198;9.890;2022-09-20T15:46:24;19.60;99.90
20722;DHT22;10522;52.198;9.890;2022-09-20T15:48:52;21.10;99.90
20722;DHT22;10522;52.198;9.890;2022-09-20T15:51:18;21.70;99.90
20722;DHT22;10522;52.198;9.890;2022-09-20T15:53:55;21.90;99.90
20722;DHT22;10522;52.198;9.890;2022-09-20T15:56:25;22.00;99.90
20722;DHT22;10522;52.198;9.890;2022-09-20T15:58:59;22.00;99.90
20722;DHT22;10522;52.198;9.890;2022-09-20T16:01:31;22.40;99.90
20722;DHT22;10522;52.198;9.890;2022-09-20T16:03:59;22.20;99.90
20722;DHT22;10522;52.198;9.890;2022-09-20T16:06:25;21.80;99.90
20722;DHT22;10522;52.198;9.890;2022-09-20T16:08:51;21.30;99.90
20722;DHT22;10522;52.198;9.890;2022-09-20T16:11:18;20.70;99.90
20722;DHT22;10522;52.198;9.890;2022-09-20T16:13:46;20.40;99.90
20722;DHT22;10522;52.198;9.890;2022-09-20T16:16:12;19.30;99.90
20722;DHT22;10522;52.198;9.890;2022-09-20T16:18:40;18.20;99.90
20722;DHT22;10522;52.198;9.890;2022-09-20T16:21:26;17.40;99.90
20722;DHT22;10522;52.198;9.890;2022-09-20T16:23:54;16.50;99.90
20722;DHT22;10522;52.198;9.890;2022-09-20T16:26:22;15.90;99.90
20722;DHT22;10522;52.198;9.890;2022-09-20T16:28:49;15.40;99.90
20722;DHT22;10522;52.198;9.890;2022-09-20T16:34:12;14.90;99.90
20722;DHT22;10522;52.198;9.890;2022-09-20T16:36:41;14.70;99.90
20722;DHT22;10522;52.198;9.890;2022-09-20T16:39:08;14.40;99.90
20722;DHT22;10522;52.198;9.890;2022-09-20T16:41:34;14.20;99.90
20722;DHT22;10522;52.198;9.890;2022-09-20T16:44:00;13.90;99.90
20722;DHT22;10522;52.198;9.890;2022-09-20T16:46:26;13.80;99.90
20722;DHT22;10522;52.198;9.890;2022-09-20T16:48:55;13.60;99.90
20722;DHT22;10522;52.198;9.890;2022-09-20T16:51:22;13.60;99.90
20722;DHT22;10522;52.198;9.890;2022-09-20T16:53:53;13.60;99.90
20722;DHT22;10522;52.198;9.890;2022-09-20T16:56:31;13.40;99.90
20722;DHT22;10522;52.198;9.890;2022-09-20T16:58:59;13.30;99.90
20722;DHT22;10522;52.198;9.890;2022-09-20T17:01:25;13.20;99.90
20722;DHT22;10522;52.198;9.890;2022-09-20T17:03:52;13.00;99.90
20722;DHT22;10522;52.198;9.890;2022-09-20T17:06:18;12.80;99.90
20722;DHT22;10522;52.198;9.890;2022-09-20T17:08:44;12.70;99.90
20722;DHT22;10522;52.198;9.890;2022-09-20T17:11:15;12.80;99.90
20722;DHT22;10522;52.198;9.890;2022-09-20T17:13:43;12.70;99.90
20722;DHT22;10522;52.198;9.890;2022-09-20T17:16:14;12.60;99.90
20722;DHT22;10522;52.198;9.890;2022-09-20T17:18:41;12.50;99.90
20722;DHT22;10522;52.198;9.890;2022-09-20T17:21:15;12.40;99.90
20722;DHT22;10522;52.198;9.890;2022-09-20T17:23:43;12.10;99.90
20722;DHT22;10522;52.198;9.890;2022-09-20T17:26:16;12.10;99.90
20722;DHT22;10522;52.198;9.890;2022-09-20T17:28:45;11.90;99.90
20722;DHT22;10522;52.198;9.890;2022-09-20T17:31:16;11.90;99.90
20722;DHT22;10522;52.198;9.890;2022-09-20T17:33:47;11.90;99.90
20722;DHT22;10522;52.198;9.890;2022-09-20T17:36:28;11.80;99.90
20722;DHT22;10522;52.198;9.890;2022-09-20T17:38:56;11.70;99.90
20722;DHT22;10522;52.198;9.890;2022-09-20T17:41:23;11.70;99.90
20722;DHT22;10522;52.198;9.890;2022-09-20T17:43:56;11.70;99.90
20722;DHT22;10522;52.198;9.890;2022-09-20T17:46:24;11.70;99.90
20722;DHT22;10522;52.198;9.890;2022-09-20T17:48:53;11.70;99.90
20722;DHT22;10522;52.198;9.890;2022-09-20T17:51:21;11.70;99.90
20722;DHT22;10522;52.198;9.890;2022-09-20T17:53:51;11.70;99.90
20722;DHT22;10522;52.198;9.890;2022-09-20T17:56:17;11.60;99.90
20722;DHT22;10522;52.198;9.890;2022-09-20T18:46:27;10.70;99.90
20722;DHT22;10522;52.198;9.890;2022-09-20T18:48:56;10.60;99.90
20722;DHT22;10522;52.198;9.890;2022-09-20T19:12:16;10.00;99.90
20722;DHT22;10522;52.198;9.890;2022-09-20T20:14:45;10.00;99.90
20722;DHT22;10522;52.198;9.890;2022-09-20T20:17:35;10.00;99.90
20722;DHT22;10522;52.198;9.890;2022-09-20T20:20:13;9.90;99.90
20722;DHT22;10522;52.198;9.890;2022-09-20T20:28:20;9.90;99.90
20722;DHT22;10522;52.198;9.890;2022-09-20T20:30:48;9.90;99.90
20722;DHT22;10522;52.198;9.890;2022-09-20T20:33:16;10.10;99.90
20722;DHT22;10522;52.198;9.890;2022-09-20T20:35:51;10.00;99.90
20722;DHT22;10522;52.198;9.890;2022-09-20T20:38:17;10.00;99.90
20722;DHT22;10522;52.198;9.890;2022-09-20T20:40:43;10.00;99.90
20722;DHT22;10522;52.198;9.890;2022-09-20T20:43:15;10.00;99.90
20722;DHT22;10522;52.198;9.890;2022-09-20T20:45:48;10.00;99.90
20722;DHT22;10522;52.198;9.890;2022-09-20T20:48:14;10.20;99.90
20722;DHT22;10522;52.198;9.890;2022-09-20T20:50:40;10.10;99.90
20722;DHT22;10522;52.198;9.890;2022-09-20T20:53:05;10.00;99.90
20722;DHT22;10522;52.198;9.890;2022-09-20T20:55:31;10.00;99.90
20722;DHT22;10522;52.198;9.890;2022-09-20T20:57:57;10.00;99.90
20722;DHT22;10522;52.198;9.890;2022-09-20T21:00:24;10.10;99.90
20722;DHT22;10522;52.198;9.890;2022-09-20T21:03:00;9.90;99.90
20722;DHT22;10522;52.198;9.890;2022-09-20T21:05:29;9.90;99.90
20722;DHT22;10522;52.198;9.890;2022-09-20T21:07:55;9.90;99.90
20722;DHT22;10522;52.198;9.890;2022-09-20T21:10:22;9.90;99.90
20722;DHT22;10522;52.198;9.890;2022-09-20T21:12:48;9.80;99.90
20722;DHT22;10522;52.198;9.890;2022-09-20T21:15:18;9.70;99.90
20722;DHT22;10522;52.198;9.890;2022-09-20T21:18:02;9.80;99.90
20722;DHT22;10522;52.198;9.890;2022-09-20T21:20:28;9.70;99.90
20722;DHT22;10522;52.198;9.890;2022-09-20T21:22:55;9.50;99.90
20722;DHT22;10522;52.198;9.890;2022-09-20T21:25:22;9.60;99.90
20722;DHT22;10522;52.198;9.890;2022-09-20T21:27:48;9.60;99.90
20722;DHT22;10522;52.198;9.890;2022-09-20T21:30:13;9.60;99.90
20722;DHT22;10522;52.198;9.890;2022-09-20T21:32:39;9.50;99.90
20722;DHT22;10522;52.198;9.890;2022-09-20T21:35:05;9.40;99.90
20722;DHT22;10522;52.198;9.890;2022-09-20T21:37:31;9.50;99.90
20722;DHT22;10522;52.198;9.890;2022-09-20T21:39:57;9.50;99.90
20722;DHT22;10522;52.198;9.890;2022-09-20T21:42:23;9.40;99.90
20722;DHT22;10522;52.198;9.890;2022-09-20T21:44:53;9.40;99.90
20722;DHT22;10522;52.198;9.890;2022-09-20T21:47:23;9.40;99.90
20722;DHT22;10522;52.198;9.890;2022-09-20T21:49:53;9.50;99.90
20722;DHT22;10522;52.198;9.890;2022-09-20T21:52:20;9.40;99.90
20722;DHT22;10522;52.198;9.890;2022-09-20T21:54:51;9.50;99.90
20722;DHT22;10522;52.198;9.890;2022-09-20T21:57:18;9.40;99.90
20722;DHT22;10522;52.198;9.890;2022-09-20T21:59:44;9.50;99.90
20722;DHT22;10522;52.198;9.890;2022-09-20T22:02:11;9.50;99.90
20722;DHT22;10522;52.198;9.890;2022-09-20T22:04:37;9.40;99.90
20722;DHT22;10522;52.198;9.890;2022-09-20T22:07:06;9.40;99.90
20722;DHT22;10522;52.198;9.890;2022-09-20T22:09:33;9.40;99.90
20722;DHT22;10522;52.198;9.890;2022-09-20T22:11:59;9.40;99.90
20722;DHT22;10522;52.198;9.890;2022-09-20T22:14:25;9.40;99.90
20722;DHT22;10522;52.198;9.890;2022-09-20T22:16:51;9.30;99.90
20722;DHT22;10522;52.198;9.890;2022-09-20T22:19:17;9.30;99.90
20722;DHT22;10522;52.198;9.890;2022-09-20T22:21:45;9.40;99.90
20722;DHT22;10522;52.198;9.890;2022-09-20T22:24:12;9.40;99.90
20722;DHT22;10522;52.198;9.890;2022-09-20T22:26:46;9.50;99.90
20722;DHT22;10522;52.198;9.890;2022-09-20T22:29:13;9.20;99.90
20722;DHT22;10522;52.198;9.890;2022-09-20T22:31:41;9.40;99.90
20722;DHT22;10522;52.198;9.890;2022-09-20T22:34:12;9.40;99.90
20722;DHT22;10522;52.198;9.890;2022-09-20T22:36:39;9.40;99.90
20722;DHT22;10522;52.198;9.890;2022-09-20T22:39:07;9.40;99.90
20722;DHT22;10522;52.198;9.890;2022-09-20T22:41:34;9.40;99.90
20722;DHT22;10522;52.198;9.890;2022-09-20T22:44:27;9.40;99.90
20722;DHT22;10522;52.198;9.890;2022-09-20T22:46:53;9.30;99.90
20722;DHT22;10522;52.198;9.890;2022-09-20T22:49:19;9.30;99.90
20722;DHT22;10522;52.198;9.890;2022-09-20T22:51:44;9.20;99.90
20722;DHT22;10522;52.198;9.890;2022-09-20T22:54:11;9.00;99.90
20722;DHT22;10522;52.198;9.890;2022-09-20T22:56:37;8.90;99.90
20722;DHT22;10522;52.198;9.890;2022-09-20T22:59:09;8.80;99.90
20722;DHT22;10522;52.198;9.890;2022-09-20T23:01:44;8.80;99.90
20722;DHT22;10522;52.198;9.890;2022-09-20T23:04:14;8.80;99.90
20722;DHT22;10522;52.198;9.890;2022-09-20T23:06:43;9.00;99.90
20722;DHT22;10522;52.198;9.890;2022-09-20T23:09:12;9.00;99.90
20722;DHT22;10522;52.198;9.890;2022-09-20T23:11:39;9.00;99.90
20722;DHT22;10522;52.198;9.890;2022-09-20T23:14:15;9.00;99.90
20722;DHT22;10522;52.198;9.890;2022-09-20T23:16:41;9.00;99.90
20722;DHT22;10522;52.198;9.890;2022-09-20T23:19:07;9.00;99.90
20722;DHT22;10522;52.198;9.890;2022-09-20T23:21:34;9.00;99.90
20722;DHT22;10522;52.198;9.890;2022-09-20T23:24:07;9.00;99.90
20722;DHT22;10522;52.198;9.890;2022-09-20T23:26:37;9.00;99.90